prognoza meteo

Duminică, 9 August 2015 | 3 Comentarii

Pentru prognoza meteo folosesc Foreca, un serviciu care utilizează datele privitoare la temperatură/umiditate/etc. informaţiile furnizate de NOAA şi preluate de la staţiile meteo de pe aeroporturile lumii. Din cauză că în aviaţie nu te poţi juca, nici măcar cu datele meteo, temperaturile sunt întotdeauna corecte şi actualizate la cel mult 1 oră.

Ceea ce nu pricep deloc, este modul în care sunt afişate datele la zi, adică este today şi Sunday? Astăzi este Sunday dar e şi today, dar temperaturile sunt diferite. De ce?

foreca-meteo-widget

Dacă vreţi să vă faceţi un script propriu cu care să preluaţi datele meteo, puteţi folosi informaţia de aici:

http://weather.noaa.gov/weather/current/LRCL.html

Datele vin într-un format care permite prelucrarea uşoară:

LRCL 090730Z 07006KT 350V090 CAVOK 26/13 Q1022

Formatul se numeşte METAR.

foreca-cluj-napoca

3 comentarii la “prognoza meteo

  1. Bucovinean a comentat:

    Posibil sa aiba timpul pe vre-un server din afara, si astfel el arata today ca Sambata pentru ca pe serverul respectiv aia e ora 🙂

    Asta daca nu i-a in calcul in script de partea de local timing of the user.

    Iti place comentariul? Thumb up 1 Thumb down 0

    Răspunde
    1. omrau.ro Post author a comentat:

      La ora 23:59 ora locala tot asa e, iar la ora aia e trecut si serverul, indiferent unde s-ar afla.

      Iti place comentariul? Thumb up 0 Thumb down 0

Ai o altă opinie? O poți scrie aici!